Ransom, Kansas
Current Conditions -  °F | °C
As of 10:35 AM on Friday 24 Oct 2014 (Local Time) from KHYS Reporting Station
Clear Clear  
Wind Chill: 61°   Ceiling: Unl
Heat Index: 61°   Visibility: 5mi
Dew Point: 55°   Wind: 8mph
Humidity: 82%   Direction: 240°WSW
Pressure: 30.05"   Gusts: NA
Location:  38.64°N, 99.93°W
Report Text: KHYS 241535Z AUTO 24007KT 5SM CLR 16/13 A3005 RMK AO1
Loading
Personal Weather Stations






























Interactive Weather Map
Tropical Storm Tracking
New forecast layout! Learn more

10-Day Weather Forecast

Advertisements
Track Severe Weather on mobile